Time;durP1;ratioP1;P1;durP2;ratioP2;P2;SDS_P1;SDS_P2;PMS_P1;PMS_P2;Temp;Humidity;BMP_temperature;BMP_pressure;BME280_temperature;BME280_humidity;BME280_pressure;Samples;Min_cycle;Max_cycle;Signal;HPM_P1;HPM_P2
2023/06/07 00:01:54;;;;;;;12.83;7.23;;;19.30;99.90;;;;;;5073793;28;20254;-70
2023/06/07 00:04:19;;;;;;;13.53;7.50;;;19.10;99.90;;;;;;5084450;28;20165;-71
2023/06/07 00:06:47;;;;;;;15.00;7.60;;;19.10;99.90;;;;;;5072310;28;20554;-70
2023/06/07 00:09:13;;;;;;;14.83;8.10;;;19.10;99.90;;;;;;5071398;28;20169;-71
2023/06/07 00:11:39;;;;;;;15.63;7.97;;;19.30;99.90;;;;;;5073526;28;20152;-71
2023/06/07 00:14:05;;;;;;;14.27;7.80;;;19.30;99.90;;;;;;5073347;28;20567;-70
2023/06/07 00:16:32;;;;;;;13.30;8.03;;;19.30;99.90;;;;;;5073716;28;20604;-71
2023/06/07 00:18:58;;;;;;;14.57;7.53;;;19.20;99.90;;;;;;5073280;28;20643;-71
2023/06/07 00:21:24;;;;;;;15.23;7.80;;;19.10;99.90;;;;;;5073678;28;20151;-72
2023/06/07 00:23:50;;;;;;;16.60;7.93;;;19.10;99.90;;;;;;5073854;28;20160;-71
2023/06/07 00:26:16;;;;;;;13.93;7.57;;;19.10;99.90;;;;;;5073405;28;20169;-70
2023/06/07 00:28:42;;;;;;;16.33;8.33;;;19.10;99.90;;;;;;5072982;28;20189;-70
2023/06/07 00:31:08;;;;;;;15.60;8.47;;;19.20;99.90;;;;;;5072869;28;20156;-71
2023/06/07 00:33:35;;;;;;;12.53;7.67;;;19.20;99.90;;;;;;5072872;28;20246;-71
2023/06/07 00:36:00;;;;;;;20.73;8.53;;;19.20;99.90;;;;;;5071366;28;20210;-70
2023/06/07 00:38:26;;;;;;;11.40;7.07;;;19.10;99.90;;;;;;5072773;28;20624;-70
2023/06/07 00:40:52;;;;;;;15.70;8.30;;;18.90;99.90;;;;;;5071057;28;20182;-70
2023/06/07 00:43:17;;;;;;;14.13;8.10;;;18.90;99.90;;;;;;5073063;28;20177;-71
2023/06/07 00:45:43;;;;;;;17.40;8.10;;;19.00;99.90;;;;;;5071938;28;20155;-70
2023/06/07 00:48:10;;;;;;;14.53;9.07;;;18.90;99.90;;;;;;5072896;28;20173;-71
2023/06/07 00:50:35;;;;;;;13.03;7.67;;;18.90;99.90;;;;;;5071163;28;20538;-71
2023/06/07 00:53:02;;;;;;;19.80;8.63;;;18.70;99.90;;;;;;5072922;28;20162;-70
2023/06/07 00:55:28;;;;;;;14.03;8.00;;;18.50;99.90;;;;;;5071454;28;20696;-71
2023/06/07 00:57:55;;;;;;;14.17;8.13;;;18.50;99.90;;;;;;5071317;28;20170;-71
2023/06/07 01:00:22;;;;;;;14.67;8.37;;;18.50;99.90;;;;;;5072798;28;20158;-70
2023/06/07 01:02:49;;;;;;;13.57;8.10;;;18.50;99.90;;;;;;5073526;28;20249;-70
2023/06/07 01:05:16;;;;;;;12.60;8.20;;;18.40;99.90;;;;;;5071177;28;20194;-72
2023/06/07 01:07:46;;;;;;;14.07;7.93;;;18.30;99.90;;;;;;5072598;28;20197;-70
2023/06/07 01:10:12;;;;;;;16.00;8.40;;;18.20;99.90;;;;;;5072433;28;20170;-71
2023/06/07 01:12:39;;;;;;;15.37;8.83;;;18.30;99.90;;;;;;5071128;28;20246;-71
2023/06/07 01:15:06;;;;;;;16.70;8.87;;;18.20;99.90;;;;;;5072762;28;20150;-71
2023/06/07 01:17:37;;;;;;;17.27;8.53;;;18.20;99.90;;;;;;5072533;28;20177;-72
2023/06/07 01:20:04;;;;;;;13.30;8.67;;;18.20;99.90;;;;;;5070710;28;20205;-70
2023/06/07 01:22:32;;;;;;;12.47;8.60;;;18.00;99.90;;;;;;5072983;28;20174;-71
2023/06/07 01:25:00;;;;;;;12.30;8.03;;;18.10;99.90;;;;;;5072467;28;20252;-70
2023/06/07 01:27:30;;;;;;;16.83;8.50;;;17.90;99.90;;;;;;5071177;28;20232;-71
2023/06/07 01:29:58;;;;;;;16.63;9.00;;;17.60;99.90;;;;;;5071162;28;20160;-70
2023/06/07 01:32:25;;;;;;;13.30;8.23;;;17.50;99.90;;;;;;5072707;28;20150;-71
2023/06/07 01:34:51;;;;;;;13.40;8.30;;;17.60;99.90;;;;;;5071971;28;20529;-71
2023/06/07 01:37:21;;;;;;;14.30;8.80;;;17.70;99.90;;;;;;5072593;28;20584;-71
2023/06/07 01:39:47;;;;;;;12.97;8.17;;;17.90;99.90;;;;;;5070845;28;20183;-71
2023/06/07 01:42:15;;;;;;;14.87;9.17;;;18.00;99.90;;;;;;5072449;28;20181;-71
2023/06/07 01:44:41;;;;;;;13.00;9.10;;;17.90;99.90;;;;;;5072561;28;20172;-70
2023/06/07 01:47:08;;;;;;;14.23;8.37;;;17.80;99.90;;;;;;5072679;28;20244;-71
2023/06/07 01:49:34;;;;;;;16.47;8.63;;;17.80;99.90;;;;;;5072457;28;20171;-71
2023/06/07 01:52:00;;;;;;;17.70;9.27;;;17.70;99.90;;;;;;5072399;28;20162;-73
2023/06/07 01:54:26;;;;;;;15.37;9.03;;;17.60;99.90;;;;;;5072851;28;20255;-73
2023/06/07 01:57:05;;;;;;;14.93;8.80;;;17.50;99.90;;;;;;5072150;28;20174;-73
2023/06/07 01:59:54;;;;;;;15.27;9.00;;;17.50;99.90;;;;;;5072351;28;20204;-74
2023/06/07 02:02:38;;;;;;;16.10;8.73;;;17.60;99.90;;;;;;5072005;28;20295;-73
2023/06/07 02:05:09;;;;;;;13.67;8.33;;;17.60;99.90;;;;;;5063346;28;20180;-74
2023/06/07 02:07:43;;;;;;;15.17;8.83;;;17.50;99.90;;;;;;5072455;28;20177;-73
2023/06/07 02:10:09;;;;;;;16.37;8.97;;;17.60;99.90;;;;;;5072112;28;20181;-73
2023/06/07 02:12:37;;;;;;;15.57;8.00;;;17.60;99.90;;;;;;5071888;28;20253;-76
2023/06/07 02:15:04;;;;;;;14.80;8.60;;;17.50;99.90;;;;;;5072184;28;20228;-75
2023/06/07 02:17:32;;;;;;;14.17;8.90;;;17.40;99.90;;;;;;5072005;28;20611;-74
2023/06/07 02:19:58;;;;;;;14.90;8.53;;;17.40;99.90;;;;;;5071774;28;20600;-74
2023/06/07 02:22:25;;;;;;;15.00;8.97;;;17.30;99.90;;;;;;5070703;28;20268;-74
2023/06/07 02:24:51;;;;;;;14.77;9.97;;;17.30;99.90;;;;;;5072099;28;20165;-74
2023/06/07 02:27:16;;;;;;;15.70;9.17;;;17.40;99.90;;;;;;5070642;28;20199;-73
2023/06/07 02:29:42;;;;;;;16.27;8.70;;;17.40;99.90;;;;;;5071123;28;20598;-74
2023/06/07 02:32:08;;;;;;;16.20;9.83;;;17.30;99.90;;;;;;5073158;28;20662;-74
2023/06/07 02:34:33;;;;;;;13.47;9.50;;;17.30;99.90;;;;;;5074166;28;20174;-73
2023/06/07 02:37:00;;;;;;;18.93;9.37;;;17.20;99.90;;;;;;5075126;28;20218;-74
2023/06/07 02:39:26;;;;;;;15.37;7.93;;;17.40;99.90;;;;;;5073714;28;20197;-74
2023/06/07 02:41:51;;;;;;;14.50;9.07;;;17.30;99.90;;;;;;5075038;28;20181;-74
2023/06/07 02:44:17;;;;;;;17.87;9.30;;;17.10;99.90;;;;;;5075255;28;20168;-74
2023/06/07 02:46:45;;;;;;;17.13;8.77;;;17.20;99.90;;;;;;5075035;28;20598;-74
2023/06/07 02:49:10;;;;;;;15.57;10.10;;;17.10;99.90;;;;;;5073738;28;20199;-73
2023/06/07 02:51:37;;;;;;;14.37;9.20;;;17.10;99.90;;;;;;5075384;28;20176;-74
2023/06/07 02:54:03;;;;;;;15.70;9.30;;;17.10;99.90;;;;;;5075318;28;20152;-75
2023/06/07 02:56:29;;;;;;;19.37;9.13;;;17.20;99.90;;;;;;5073521;28;20221;-75
2023/06/07 02:58:55;;;;;;;17.67;9.57;;;17.30;99.90;;;;;;5075073;28;20205;-75
2023/06/07 03:01:21;;;;;;;14.97;9.30;;;17.20;99.90;;;;;;5075247;28;20169;-74
2023/06/07 03:03:48;;;;;;;17.03;10.00;;;17.00;99.90;;;;;;5075605;28;20217;-74
2023/06/07 03:06:15;;;;;;;14.97;9.97;;;17.10;99.90;;;;;;5075095;28;20195;-75
2023/06/07 03:08:42;;;;;;;17.10;9.47;;;17.20;99.90;;;;;;5075006;28;20169;-74
2023/06/07 03:11:08;;;;;;;12.53;9.17;;;17.10;99.90;;;;;;5074842;28;20171;-74
2023/06/07 03:13:34;;;;;;;25.23;11.27;;;17.10;99.90;;;;;;5073426;28;20175;-74
2023/06/07 03:16:00;;;;;;;19.70;9.67;;;17.00;99.90;;;;;;5075025;28;20160;-75
2023/06/07 03:18:25;;;;;;;15.57;9.87;;;17.00;99.90;;;;;;5074352;28;20561;-74
2023/06/07 03:20:51;;;;;;;16.03;9.17;;;16.90;99.90;;;;;;5074448;28;20237;-74
2023/06/07 03:23:17;;;;;;;15.17;9.80;;;16.90;99.90;;;;;;5074062;28;20183;-72
2023/06/07 03:25:45;;;;;;;18.10;9.57;;;16.70;99.90;;;;;;5074304;28;20196;-73
2023/06/07 03:28:10;;;;;;;16.20;9.90;;;16.80;99.90;;;;;;5074066;28;20178;-75
2023/06/07 03:30:36;;;;;;;17.50;9.80;;;16.80;99.90;;;;;;5074862;28;20173;-73
2023/06/07 03:33:02;;;;;;;15.20;9.93;;;16.80;99.90;;;;;;5072518;28;20167;-74
2023/06/07 03:35:27;;;;;;;14.40;9.23;;;16.90;99.90;;;;;;5073223;28;20171;-74
2023/06/07 03:37:53;;;;;;;19.80;9.87;;;16.70;99.90;;;;;;5074240;28;20245;-74
2023/06/07 03:40:19;;;;;;;16.73;9.13;;;16.80;99.90;;;;;;5073893;28;20604;-74
2023/06/07 03:42:44;;;;;;;14.67;10.33;;;16.70;99.90;;;;;;5073191;28;20200;-74
2023/06/07 03:45:10;;;;;;;20.60;10.67;;;16.70;99.90;;;;;;5072419;28;20213;-74
2023/06/07 03:47:37;;;;;;;15.70;9.37;;;16.60;99.90;;;;;;5074421;28;20252;-76
2023/06/07 03:50:03;;;;;;;15.03;9.20;;;16.60;99.90;;;;;;5074438;28;20169;-77
2023/06/07 03:52:29;;;;;;;15.47;9.77;;;16.60;99.90;;;;;;5072537;28;20168;-76
2023/06/07 03:54:55;;;;;;;14.77;9.50;;;16.60;99.90;;;;;;5073743;28;20646;-77
2023/06/07 03:57:21;;;;;;;16.40;8.97;;;16.60;99.90;;;;;;5072789;28;20167;-77
2023/06/07 03:59:49;;;;;;;14.63;9.07;;;16.60;99.90;;;;;;5073379;28;20206;-76
2023/06/07 04:02:15;;;;;;;18.90;9.50;;;16.50;99.90;;;;;;5074298;28;20167;-76
2023/06/07 04:04:40;;;;;;;16.37;9.70;;;16.30;99.90;;;;;;5072593;28;20182;-77
2023/06/07 04:07:07;;;;;;;18.33;9.43;;;16.30;99.90;;;;;;5074496;28;20356;-77
2023/06/07 04:09:33;;;;;;;16.90;9.83;;;16.40;99.90;;;;;;5072871;28;20172;-77
2023/06/07 04:11:58;;;;;;;19.93;10.30;;;16.40;99.90;;;;;;5074181;28;20170;-76
2023/06/07 04:14:24;;;;;;;18.10;9.73;;;16.40;99.90;;;;;;5073520;28;20222;-76
2023/06/07 04:16:51;;;;;;;17.97;10.17;;;16.50;99.90;;;;;;5073928;28;20195;-77
2023/06/07 04:19:16;;;;;;;17.57;9.13;;;16.70;99.90;;;;;;5073839;28;20191;-77
2023/06/07 04:21:42;;;;;;;12.83;9.57;;;16.60;99.90;;;;;;5072581;28;20266;-75
2023/06/07 04:24:08;;;;;;;15.70;9.67;;;16.60;99.90;;;;;;5072488;28;20179;-76
2023/06/07 04:26:35;;;;;;;17.47;9.63;;;16.60;99.90;;;;;;5073983;28;20152;-76
2023/06/07 04:29:01;;;;;;;17.30;9.40;;;16.50;99.90;;;;;;5071855;28;20187;-76
2023/06/07 04:31:29;;;;;;;13.90;9.67;;;16.40;99.90;;;;;;5073370;28;20540;-76
2023/06/07 04:34:01;;;;;;;17.47;9.70;;;16.30;99.90;;;;;;5072742;28;20173;-77
2023/06/07 04:36:30;;;;;;;18.43;9.53;;;16.30;99.90;;;;;;5071837;28;20192;-77
2023/06/07 04:38:56;;;;;;;14.33;9.37;;;16.30;99.90;;;;;;5072672;28;20187;-78
2023/06/07 04:41:30;;;;;;;19.50;10.20;;;16.30;99.90;;;;;;5071771;28;20236;-77
2023/06/07 04:43:56;;;;;;;15.90;9.93;;;16.20;99.90;;;;;;5072725;28;20179;-77
2023/06/07 04:46:22;;;;;;;14.20;9.37;;;16.30;99.90;;;;;;5071610;28;20161;-77
2023/06/07 04:48:47;;;;;;;17.37;9.43;;;16.30;99.90;;;;;;5072951;28;20663;-77
2023/06/07 04:51:13;;;;;;;15.53;10.10;;;16.40;99.90;;;;;;5073041;28;20638;-77
2023/06/07 04:53:41;;;;;;;15.03;9.53;;;16.40;99.90;;;;;;5072963;28;20622;-76
2023/06/07 04:56:08;;;;;;;13.87;9.77;;;16.50;99.90;;;;;;5071849;28;20175;-77
2023/06/07 04:58:33;;;;;;;16.37;9.60;;;16.30;99.90;;;;;;5072682;28;20199;-76
2023/06/07 05:01:00;;;;;;;16.93;9.40;;;16.30;99.90;;;;;;5071813;28;20189;-76
2023/06/07 05:03:26;;;;;;;21.30;10.83;;;16.40;99.90;;;;;;5073479;28;20215;-77
2023/06/07 05:05:52;;;;;;;19.50;10.23;;;16.60;99.90;;;;;;5071180;28;20753;-77
2023/06/07 05:08:18;;;;;;;15.67;9.20;;;16.60;99.90;;;;;;5072734;28;20640;-77
2023/06/07 05:10:49;;;;;;;18.10;9.40;;;16.50;99.90;;;;;;5072758;28;20161;-77
2023/06/07 05:13:15;;;;;;;18.20;9.00;;;16.60;99.90;;;;;;5071660;28;20629;-78
2023/06/07 05:16:01;;;;;;;16.70;10.17;;;16.70;99.90;;;;;;5072800;28;20217;-77
2023/06/07 05:18:28;;;;;;;17.37;9.87;;;16.70;99.90;;;;;;5071373;28;20252;-78
2023/06/07 05:20:55;;;;;;;15.57;9.50;;;16.80;99.90;;;;;;5071597;28;20652;-77
2023/06/07 05:23:27;;;;;;;15.97;9.87;;;16.80;99.90;;;;;;5072837;28;20315;-77
2023/06/07 05:25:55;;;;;;;16.07;9.93;;;16.80;99.90;;;;;;5072871;28;20783;-77
2023/06/07 05:28:28;;;;;;;18.23;9.67;;;16.80;99.90;;;;;;5071511;28;20180;-77
2023/06/07 05:30:58;;;;;;;16.17;9.90;;;16.90;99.90;;;;;;5071630;28;20210;-77
2023/06/07 05:33:25;;;;;;;16.90;10.40;;;17.00;99.90;;;;;;5071649;28;20160;-77
2023/06/07 05:35:54;;;;;;;15.10;9.40;;;17.00;99.90;;;;;;5072692;28;20188;-77
2023/06/07 05:38:25;;;;;;;14.23;9.30;;;16.90;99.90;;;;;;5072640;28;20177;-78
2023/06/07 05:40:54;;;;;;;15.53;9.73;;;16.80;99.90;;;;;;5072699;28;20176;-77
2023/06/07 05:43:23;;;;;;;15.13;9.43;;;17.00;99.90;;;;;;5073706;28;20605;-77
2023/06/07 05:45:51;;;;;;;14.57;10.00;;;17.20;99.90;;;;;;5072845;28;20601;-77
2023/06/07 05:48:20;;;;;;;22.57;10.17;;;17.10;99.90;;;;;;5073144;28;20165;-78
2023/06/07 05:51:16;;;;;;;14.23;8.97;;;17.20;99.90;;;;;;5074001;28;20172;-78
2023/06/07 05:53:52;;;;;;;16.23;9.03;;;17.30;99.90;;;;;;5071300;28;20247;-77
2023/06/07 05:56:21;;;;;;;16.77;9.63;;;17.30;99.90;;;;;;5072611;28;20567;-77
2023/06/07 05:58:52;;;;;;;14.07;9.00;;;17.40;99.90;;;;;;5073023;28;20161;-74
2023/06/07 06:01:17;;;;;;;21.13;10.37;;;17.60;99.90;;;;;;5072570;28;20175;-75
2023/06/07 06:03:43;;;;;;;15.97;9.53;;;17.50;99.90;;;;;;5072245;28;20798;-75
2023/06/07 06:06:16;;;;;;;15.13;9.67;;;17.60;99.90;;;;;;5072396;28;20173;-75
2023/06/07 06:08:42;;;;;;;15.97;10.17;;;17.70;99.90;;;;;;5076265;28;20211;-76
2023/06/07 06:11:11;;;;;;;17.00;9.57;;;17.70;99.90;;;;;;5076353;28;20173;-75
2023/06/07 06:13:39;;;;;;;16.10;10.03;;;17.70;99.90;;;;;;5073405;28;20184;-76
2023/06/07 06:16:05;;;;;;;19.17;9.83;;;17.70;99.90;;;;;;5075438;28;20164;-76
2023/06/07 06:18:32;;;;;;;13.63;9.47;;;17.80;99.90;;;;;;5074599;28;20167;-75
2023/06/07 06:20:58;;;;;;;20.70;10.83;;;17.70;99.90;;;;;;5073296;28;20224;-74
2023/06/07 06:23:24;;;;;;;21.73;10.27;;;17.70;99.90;;;;;;5074804;28;20166;-75
2023/06/07 06:25:51;;;;;;;19.60;10.50;;;18.00;99.90;;;;;;5078766;28;20260;-73
2023/06/07 06:28:17;;;;;;;18.07;10.27;;;18.00;99.90;;;;;;5073357;28;20238;-74
2023/06/07 06:30:44;;;;;;;18.00;10.57;;;18.10;99.90;;;;;;5075234;28;20164;-74
2023/06/07 06:33:10;;;;;;;25.70;10.97;;;18.30;99.90;;;;;;5075291;28;20226;-75
2023/06/07 06:35:37;;;;;;;37.53;11.37;;;18.50;99.90;;;;;;5075031;28;20537;-75
2023/06/07 06:38:02;;;;;;;20.23;11.20;;;18.60;99.90;;;;;;5075292;28;20169;-75
2023/06/07 06:40:28;;;;;;;15.23;10.10;;;18.70;99.90;;;;;;5075270;28;20192;-75
2023/06/07 06:42:54;;;;;;;18.43;9.93;;;18.90;99.90;;;;;;5075092;28;20201;-74
2023/06/07 06:45:20;;;;;;;18.70;10.43;;;19.00;99.90;;;;;;5075441;28;20461;-75
2023/06/07 06:47:45;;;;;;;17.97;10.70;;;19.00;99.90;;;;;;5074980;28;20254;-74
2023/06/07 06:50:13;;;;;;;19.47;11.10;;;19.00;99.90;;;;;;5075020;28;20242;-74
2023/06/07 06:52:39;;;;;;;27.43;11.47;;;18.70;99.90;;;;;;5073623;28;20166;-74
2023/06/07 06:55:05;;;;;;;18.77;11.30;;;18.80;99.90;;;;;;5073977;28;20171;-74
2023/06/07 06:57:30;;;;;;;16.97;11.33;;;18.70;99.90;;;;;;5075546;28;20280;-74
2023/06/07 06:59:56;;;;;;;19.30;10.90;;;18.80;99.90;;;;;;5075841;28;20164;-74
2023/06/07 07:02:22;;;;;;;18.67;10.17;;;18.90;99.90;;;;;;5075863;28;20191;-74
2023/06/07 07:04:48;;;;;;;20.30;10.53;;;19.00;99.90;;;;;;5074932;28;20571;-74
2023/06/07 07:07:15;;;;;;;13.40;9.70;;;19.10;99.90;;;;;;5074523;28;20199;-74
2023/06/07 07:09:40;;;;;;;18.70;10.60;;;19.10;99.90;;;;;;5074830;28;20700;-74
2023/06/07 07:12:07;;;;;;;18.63;10.13;;;19.10;99.90;;;;;;5074589;28;20172;-75
2023/06/07 07:14:32;;;;;;;20.37;11.37;;;19.00;99.90;;;;;;5075004;28;20158;-75
2023/06/07 07:16:58;;;;;;;13.70;10.27;;;19.00;99.90;;;;;;5072856;28;20166;-74
2023/06/07 07:19:24;;;;;;;21.43;11.40;;;19.00;99.90;;;;;;5073068;28;20625;-74
2023/06/07 07:21:51;;;;;;;19.40;11.57;;;19.00;99.90;;;;;;5074445;28;20659;-74
2023/06/07 07:24:17;;;;;;;15.43;11.07;;;19.10;99.90;;;;;;5074422;28;20532;-74
2023/06/07 07:26:43;;;;;;;20.83;11.33;;;19.00;99.90;;;;;;5074538;28;20162;-74
2023/06/07 07:29:08;;;;;;;17.77;10.83;;;19.20;99.90;;;;;;5074333;28;20200;-74
2023/06/07 07:31:34;;;;;;;17.47;11.10;;;19.30;99.90;;;;;;5074356;28;20572;-74
2023/06/07 07:34:03;;;;;;;17.47;11.10;;;19.40;99.90;;;;;;5074427;28;20182;-75
2023/06/07 07:36:33;;;;;;;18.60;11.43;;;19.50;99.90;;;;;;5074462;28;20510;-75
2023/06/07 07:39:04;;;;;;;27.10;11.47;;;19.80;99.90;;;;;;5074586;28;20499;-74
2023/06/07 07:41:33;;;;;;;24.30;10.83;;;19.80;99.90;;;;;;5074250;28;20295;-74
2023/06/07 07:43:59;;;;;;;25.03;11.83;;;19.70;99.90;;;;;;5074015;28;20183;-74
2023/06/07 07:46:25;;;;;;;21.20;11.03;;;19.70;99.90;;;;;;5074023;28;20174;-74
2023/06/07 07:48:51;;;;;;;16.67;10.63;;;19.80;99.90;;;;;;5073882;28;20248;-74
2023/06/07 07:51:16;;;;;;;22.00;10.90;;;19.70;99.90;;;;;;5074190;28;20179;-74
2023/06/07 07:53:42;;;;;;;16.87;10.67;;;19.40;99.90;;;;;;5073757;28;20177;-75
2023/06/07 07:56:08;;;;;;;16.43;10.90;;;19.40;99.90;;;;;;5073986;28;20224;-75
2023/06/07 07:58:35;;;;;;;18.60;11.77;;;19.50;99.90;;;;;;5073926;28;20180;-74
2023/06/07 08:01:01;;;;;;;18.90;11.07;;;19.50;99.90;;;;;;5074143;28;20531;-74
2023/06/07 08:03:28;;;;;;;21.57;11.47;;;19.50;99.90;;;;;;5073791;28;20179;-75
2023/06/07 08:05:53;;;;;;;24.53;12.60;;;19.40;99.90;;;;;;5073434;28;20171;-74
2023/06/07 08:08:19;;;;;;;16.03;11.00;;;19.30;99.90;;;;;;5072367;28;20166;-75
2023/06/07 08:10:46;;;;;;;18.10;11.47;;;19.30;99.90;;;;;;5073778;28;20245;-74
2023/06/07 08:13:12;;;;;;;17.97;11.80;;;19.30;99.90;;;;;;5073665;28;20150;-76
2023/06/07 08:15:38;;;;;;;20.10;11.87;;;19.40;99.90;;;;;;5072373;28;20555;-75
2023/06/07 08:18:06;;;;;;;21.83;12.37;;;19.50;99.90;;;;;;5073424;28;20171;-75
2023/06/07 08:20:32;;;;;;;19.87;12.30;;;19.50;99.90;;;;;;5073332;28;20521;-75
2023/06/07 08:22:58;;;;;;;20.87;12.10;;;19.70;99.90;;;;;;5073507;28;20178;-75
2023/06/07 08:25:23;;;;;;;21.70;12.83;;;19.80;99.90;;;;;;5073411;28;20246;-74
2023/06/07 08:27:49;;;;;;;24.87;12.50;;;20.00;99.90;;;;;;5073154;28;20220;-75
2023/06/07 08:30:15;;;;;;;20.60;11.20;;;20.20;99.90;;;;;;5071353;28;20209;-76
2023/06/07 08:32:43;;;;;;;20.10;12.03;;;20.30;99.90;;;;;;5071994;28;20174;-74
2023/06/07 08:35:10;;;;;;;25.97;12.53;;;20.50;99.90;;;;;;5072909;28;20213;-75
2023/06/07 08:37:36;;;;;;;20.47;11.77;;;20.60;99.90;;;;;;5071840;28;20159;-75
2023/06/07 08:40:04;;;;;;;28.43;12.27;;;21.00;99.90;;;;;;5073536;28;20616;-74
2023/06/07 08:42:30;;;;;;;16.33;11.30;;;21.20;99.90;;;;;;5072784;28;20187;-74
2023/06/07 08:44:56;;;;;;;19.63;11.80;;;21.30;99.90;;;;;;5072861;28;20181;-74
2023/06/07 08:47:25;;;;;;;22.20;13.20;;;21.20;99.90;;;;;;5073313;28;20155;-76
2023/06/07 08:49:55;;;;;;;20.30;11.77;;;21.10;99.90;;;;;;5072372;28;20206;-74
2023/06/07 08:52:23;;;;;;;23.77;11.57;;;21.00;99.90;;;;;;5072991;28;20292;-75
2023/06/07 08:54:49;;;;;;;23.07;12.27;;;20.90;99.90;;;;;;5072817;28;20159;-76
2023/06/07 08:57:16;;;;;;;19.30;11.93;;;20.70;99.90;;;;;;5073074;28;20167;-76
2023/06/07 08:59:45;;;;;;;22.20;12.23;;;20.50;99.90;;;;;;5072939;28;20174;-75
2023/06/07 09:02:12;;;;;;;18.10;11.93;;;20.50;99.90;;;;;;5073581;28;20469;-75
2023/06/07 09:04:39;;;;;;;20.03;12.00;;;20.40;99.90;;;;;;5071598;28;20177;-74
2023/06/07 09:07:07;;;;;;;20.17;12.33;;;20.40;99.90;;;;;;5073620;28;20250;-75
2023/06/07 09:09:34;;;;;;;19.70;12.57;;;20.50;99.90;;;;;;5073651;28;20313;-75
2023/06/07 09:12:00;;;;;;;18.63;12.60;;;20.30;99.90;;;;;;5073571;28;20163;-74
2023/06/07 09:14:29;;;;;;;19.77;12.50;;;20.40;99.90;;;;;;5073283;28;20153;-74
2023/06/07 09:16:56;;;;;;;18.67;12.27;;;20.40;99.90;;;;;;5073492;28;20155;-76
2023/06/07 09:19:42;;;;;;;19.03;12.07;;;20.60;99.90;;;;;;5073213;28;20616;-75
2023/06/07 09:22:17;;;;;;;18.20;11.47;;;20.90;99.90;;;;;;5072097;28;20651;-75
2023/06/07 09:24:43;;;;;;;21.57;12.33;;;20.80;99.90;;;;;;5072256;28;20166;-75
2023/06/07 09:27:10;;;;;;;18.53;12.30;;;21.00;99.90;;;;;;5072296;28;20177;-74
2023/06/07 09:29:41;;;;;;;17.43;11.57;;;21.30;99.90;;;;;;5072432;28;20194;-76
2023/06/07 09:32:20;;;;;;;18.37;12.13;;;21.30;99.90;;;;;;5072172;28;20206;-77
2023/06/07 09:34:46;;;;;;;20.37;11.83;;;21.60;99.90;;;;;;5072246;28;20163;-74
2023/06/07 09:37:13;;;;;;;20.60;12.40;;;21.60;99.90;;;;;;5072205;28;20238;-75
2023/06/07 09:39:40;;;;;;;19.47;12.43;;;21.60;99.90;;;;;;5072342;28;20644;-74
2023/06/07 09:42:16;;;;;;;21.47;12.00;;;21.60;99.90;;;;;;5075741;28;20221;-74
2023/06/07 09:44:41;;;;;;;20.77;12.17;;;21.80;99.90;;;;;;5076120;28;20600;-74
2023/06/07 09:47:22;;;;;;;18.57;12.60;;;21.80;99.90;;;;;;5075935;28;20183;-74
2023/06/07 09:49:48;;;;;;;17.30;11.50;;;22.00;99.90;;;;;;5074663;28;20686;-74
2023/06/07 09:52:15;;;;;;;22.03;12.33;;;22.00;99.90;;;;;;5075941;28;20171;-75
2023/06/07 09:54:44;;;;;;;20.13;12.43;;;22.00;99.90;;;;;;5076051;28;20158;-75
2023/06/07 09:57:32;;;;;;;20.50;12.53;;;22.20;99.90;;;;;;5075935;28;20202;-75
2023/06/07 10:00:13;;;;;;;18.53;11.93;;;22.50;99.90;;;;;;5075612;28;20191;-75
2023/06/07 10:02:41;;;;;;;17.93;11.97;;;22.60;99.90;;;;;;5075653;28;20167;-74
2023/06/07 10:05:07;;;;;;;16.63;11.33;;;22.60;99.90;;;;;;5075960;28;20167;-74
2023/06/07 10:07:37;;;;;;;14.77;10.77;;;22.90;99.90;;;;;;5076002;28;20159;-74
2023/06/07 10:10:03;;;;;;;19.17;11.57;;;23.00;99.90;;;;;;5075858;28;20199;-76
2023/06/07 10:12:31;;;;;;;18.20;11.23;;;23.10;99.90;;;;;;5075967;28;20163;-74
2023/06/07 10:15:02;;;;;;;16.63;11.43;;;23.50;99.90;;;;;;5075782;28;20221;-75
2023/06/07 10:17:46;;;;;;;15.87;10.90;;;23.70;99.90;;;;;;5074273;28;20171;-74
2023/06/07 10:20:19;;;;;;;19.10;11.70;;;23.70;99.90;;;;;;5075943;28;20258;-74
2023/06/07 10:22:48;;;;;;;18.00;11.40;;;23.80;99.60;;;;;;5075902;28;20202;-74
2023/06/07 10:25:20;;;;;;;18.27;11.30;;;23.90;98.90;;;;;;5075582;28;20154;-74
2023/06/07 10:28:08;;;;;;;14.97;10.70;;;23.80;98.50;;;;;;5075409;28;20174;-75
2023/06/07 10:30:36;;;;;;;20.40;11.70;;;23.90;98.70;;;;;;5075058;28;20252;-74
2023/06/07 10:33:06;;;;;;;15.53;10.17;;;24.00;98.60;;;;;;5075437;28;20156;-74
2023/06/07 10:35:32;;;;;;;15.27;9.33;;;24.30;98.40;;;;;;5075462;28;20151;-74
2023/06/07 10:37:58;;;;;;;15.37;11.47;;;24.40;97.60;;;;;;5075547;28;20184;-75
2023/06/07 10:40:25;;;;;;;17.97;11.60;;;24.50;97.80;;;;;;5075249;28;20168;-75
2023/06/07 10:42:52;;;;;;;16.23;11.00;;;24.50;97.90;;;;;;5075038;28;20178;-75
2023/06/07 10:45:19;;;;;;;14.70;10.07;;;24.60;97.70;;;;;;5074487;28;20169;-75
2023/06/07 10:47:47;;;;;;;17.60;10.83;;;24.70;97.80;;;;;;5075058;28;20575;-75
2023/06/07 10:50:27;;;;;;;16.57;11.03;;;24.80;97.40;;;;;;5074809;28;20203;-75
2023/06/07 10:52:58;;;;;;;17.33;11.20;;;24.80;96.90;;;;;;5073867;28;20163;-74
2023/06/07 10:55:31;;;;;;;17.60;10.60;;;24.50;96.90;;;;;;5073586;28;20160;-74
2023/06/07 10:58:00;;;;;;;18.37;9.77;;;24.50;97.50;;;;;;5075984;28;20204;-74
2023/06/07 11:00:33;;;;;;;15.90;9.30;;;24.70;97.70;;;;;;5074879;28;20219;-74
2023/06/07 11:03:06;;;;;;;15.30;9.90;;;24.80;97.00;;;;;;5073469;28;20182;-74
2023/06/07 11:06:01;;;;;;;14.10;10.10;;;25.30;96.00;;;;;;5074835;28;20246;-75
2023/06/07 11:08:31;;;;;;;13.57;9.07;;;25.10;96.40;;;;;;5074854;28;20254;-74
2023/06/07 11:11:00;;;;;;;17.13;9.47;;;25.20;96.20;;;;;;5075753;28;20229;-75
2023/06/07 11:13:26;;;;;;;16.43;9.07;;;25.30;95.80;;;;;;5074774;28;20542;-74
2023/06/07 11:15:52;;;;;;;17.00;9.80;;;25.70;95.50;;;;;;5073644;28;20168;-74
2023/06/07 11:18:18;;;;;;;12.50;9.23;;;26.10;94.40;;;;;;5074989;28;20167;-74
2023/06/07 11:20:45;;;;;;;13.33;8.67;;;26.40;94.10;;;;;;5074930;28;20216;-75
2023/06/07 11:23:24;;;;;;;13.47;8.77;;;26.80;93.70;;;;;;5074427;28;20246;-75
2023/06/07 11:25:53;;;;;;;19.77;8.30;;;27.10;92.40;;;;;;5074275;28;20171;-75
2023/06/07 11:28:23;;;;;;;14.87;8.20;;;27.40;91.80;;;;;;5075098;28;20167;-74
2023/06/07 11:30:50;;;;;;;17.30;7.93;;;28.10;91.00;;;;;;5075855;28;20151;-75
2023/06/07 11:33:16;;;;;;;13.53;9.57;;;28.40;89.10;;;;;;5074233;28;20280;-73
2023/06/07 11:35:43;;;;;;;14.93;8.73;;;28.60;89.60;;;;;;5073144;28;20170;-73
2023/06/07 11:38:10;;;;;;;11.17;8.07;;;28.50;89.50;;;;;;5074767;28;20155;-74
2023/06/07 11:40:36;;;;;;;10.73;7.40;;;29.10;88.50;;;;;;5074049;28;20147;-75
2023/06/07 11:43:02;;;;;;;13.47;8.20;;;29.40;86.70;;;;;;5073596;28;20183;-77
2023/06/07 11:45:31;;;;;;;14.40;7.70;;;29.20;86.40;;;;;;5073794;28;20237;-74
2023/06/07 11:48:00;;;;;;;13.37;7.83;;;29.40;86.40;;;;;;5073854;28;20155;-74
2023/06/07 11:50:25;;;;;;;24.07;8.07;;;29.40;85.10;;;;;;5074059;28;20547;-74
2023/06/07 11:52:54;;;;;;;12.73;7.50;;;29.60;85.70;;;;;;5073935;28;20148;-75
2023/06/07 11:55:20;;;;;;;18.53;8.27;;;30.10;84.30;;;;;;5073959;28;20687;-74
2023/06/07 11:57:51;;;;;;;13.60;7.20;;;30.50;83.20;;;;;;5073341;28;20195;-76
2023/06/07 12:00:20;;;;;;;11.87;7.60;;;30.00;81.80;;;;;;5073891;28;20171;-73
2023/06/07 12:02:47;;;;;;;11.37;7.50;;;30.40;81.40;;;;;;5074650;28;20182;-74
2023/06/07 12:05:14;;;;;;;13.13;7.80;;;30.40;80.50;;;;;;5073699;28;20159;-75
2023/06/07 12:07:41;;;;;;;10.93;7.13;;;30.20;81.70;;;;;;5074023;28;20178;-75
2023/06/07 12:10:07;;;;;;;9.45;6.72;;;30.50;81.30;;;;;;5073796;28;20195;-75
2023/06/07 12:12:37;;;;;;;13.82;7.55;;;31.00;79.40;;;;;;5073726;28;20636;-75
2023/06/07 12:15:04;;;;;;;10.73;7.53;;;31.90;77.80;;;;;;5073490;28;20681;-75
2023/06/07 12:17:36;;;;;;;13.80;7.65;;;31.40;79.00;;;;;;5072367;28;20164;-75
2023/06/07 12:20:14;;;;;;;9.77;7.17;;;31.40;77.70;;;;;;5088154;28;20205;-74
2023/06/07 12:22:40;;;;;;;12.30;8.27;;;30.70;79.10;;;;;;5075256;28;20159;-74
2023/06/07 12:25:20;;;;;;;9.77;7.50;;;31.30;79.30;;;;;;5130482;27;20544;-76
2023/06/07 12:27:47;;;;;;;11.35;8.02;;;31.80;77.80;;;;;;5113380;28;20627;-74
2023/06/07 12:30:13;;;;;;;13.18;7.13;;;32.50;76.10;;;;;;5112252;28;20595;-74
2023/06/07 12:32:39;;;;;;;10.35;6.00;;;32.60;73.70;;;;;;5112403;28;20253;-73
2023/06/07 12:35:08;;;;;;;7.65;5.70;;;32.90;72.10;;;;;;5130691;28;20663;-74
2023/06/07 12:37:35;;;;;;;9.00;5.53;;;32.70;71.70;;;;;;5112476;28;20618;-74